createdAt,value
2023-05-20T00:00:19.875Z,9.40
2023-05-20T00:02:46.472Z,9.32
2023-05-20T00:05:12.920Z,10.60
2023-05-20T00:07:39.803Z,11.90
2023-05-20T00:10:06.728Z,7.90
2023-05-20T00:12:33.269Z,8.40
2023-05-20T00:14:59.708Z,11.20
2023-05-20T00:17:28.130Z,8.55
2023-05-20T00:19:54.779Z,12.10
2023-05-20T00:22:21.634Z,9.70
2023-05-20T00:24:48.096Z,12.70
2023-05-20T00:27:14.556Z,13.70
2023-05-20T00:29:40.977Z,11.73
2023-05-20T00:32:07.786Z,14.13
2023-05-20T00:34:34.390Z,12.38
2023-05-20T00:37:00.801Z,14.02
2023-05-20T00:39:27.250Z,12.75
2023-05-20T00:41:53.716Z,11.68
2023-05-20T00:44:23.883Z,12.52
2023-05-20T00:46:50.475Z,12.68
2023-05-20T00:49:17.473Z,10.50
2023-05-20T00:51:44.054Z,10.85
2023-05-20T00:54:10.771Z,11.15
2023-05-20T00:56:37.307Z,9.80
2023-05-20T00:59:04.719Z,9.00
2023-05-20T01:01:31.093Z,9.35
2023-05-20T01:03:57.533Z,10.57
2023-05-20T01:06:24.127Z,9.20
2023-05-20T01:08:50.654Z,10.25
2023-05-20T01:11:35.571Z,10.18
2023-05-20T01:14:06.608Z,9.73
2023-05-20T01:16:35.478Z,10.27
2023-05-20T01:19:03.955Z,11.10
2023-05-20T01:21:32.235Z,10.45
2023-05-20T01:23:58.681Z,10.57
2023-05-20T01:26:27.037Z,9.68
2023-05-20T01:28:54.267Z,10.25
2023-05-20T01:31:32.492Z,9.85
2023-05-20T01:34:00.187Z,9.43
2023-05-20T01:36:27.611Z,8.98
2023-05-20T01:38:55.231Z,9.60
2023-05-20T01:41:25.073Z,8.80
2023-05-20T01:43:51.622Z,10.85
2023-05-20T01:46:18.092Z,11.38
2023-05-20T01:48:44.455Z,11.55
2023-05-20T01:51:10.955Z,10.15
2023-05-20T01:53:37.335Z,10.88
2023-05-20T01:56:05.785Z,9.05
2023-05-20T01:58:32.278Z,9.13
2023-05-20T02:00:58.765Z,8.82
2023-05-20T02:03:25.237Z,8.25
2023-05-20T02:05:51.720Z,9.32
2023-05-20T02:08:18.164Z,9.30
2023-05-20T02:10:44.580Z,10.20
2023-05-20T02:13:10.983Z,9.60
2023-05-20T02:15:41.574Z,11.85
2023-05-20T02:18:08.406Z,10.50
2023-05-20T02:20:38.434Z,10.70
2023-05-20T02:23:05.862Z,10.10
2023-05-20T02:25:32.915Z,11.80
2023-05-20T02:27:59.585Z,11.45
2023-05-20T02:30:26.966Z,11.02
2023-05-20T02:32:53.424Z,10.57
2023-05-20T02:35:19.983Z,10.48
2023-05-20T02:37:46.481Z,10.93
2023-05-20T02:40:12.899Z,10.80
2023-05-20T02:42:39.320Z,11.15
2023-05-20T02:45:06.379Z,11.23
2023-05-20T02:47:32.784Z,12.00
2023-05-20T02:49:59.201Z,13.93
2023-05-20T02:52:25.567Z,12.25
2023-05-20T02:54:52.744Z,11.07
2023-05-20T02:57:19.211Z,12.07
2023-05-20T02:59:45.980Z,11.40
2023-05-20T03:02:12.330Z,12.45
2023-05-20T03:04:38.936Z,12.68
2023-05-20T03:07:07.505Z,11.32
2023-05-20T03:09:33.910Z,11.20
2023-05-20T03:12:00.435Z,11.05
2023-05-20T03:14:26.874Z,12.07
2023-05-20T03:16:55.916Z,12.25
2023-05-20T03:19:22.618Z,14.27
2023-05-20T03:21:50.565Z,16.10
2023-05-20T03:24:16.996Z,18.08
2023-05-20T03:26:43.823Z,20.45
2023-05-20T03:29:10.789Z,18.73
2023-05-20T03:31:37.195Z,24.25
2023-05-20T03:34:03.610Z,23.67
2023-05-20T03:36:30.017Z,26.58
2023-05-20T03:38:56.518Z,27.85
2023-05-20T03:41:23.077Z,30.95
2023-05-20T03:43:49.508Z,29.63
2023-05-20T03:46:16.086Z,30.35
2023-05-20T03:48:42.540Z,27.00
2023-05-20T03:51:08.911Z,27.00
2023-05-20T03:53:35.297Z,27.02
2023-05-20T03:56:01.714Z,29.60
2023-05-20T03:58:29.215Z,28.88
2023-05-20T04:00:55.890Z,30.17
2023-05-20T04:03:22.899Z,24.90
2023-05-20T04:05:50.573Z,25.05
2023-05-20T04:08:18.729Z,24.27
2023-05-20T04:10:46.309Z,22.55
2023-05-20T04:13:12.725Z,24.10
2023-05-20T04:15:39.205Z,22.60
2023-05-20T04:18:06.219Z,22.80
2023-05-20T04:20:33.184Z,22.15
2023-05-20T04:22:59.679Z,22.92
2023-05-20T04:25:26.112Z,20.48
2023-05-20T04:27:54.197Z,18.75
2023-05-20T04:30:22.009Z,21.45
2023-05-20T04:32:50.583Z,23.90
2023-05-20T04:35:17.439Z,19.00
2023-05-20T04:37:47.983Z,20.08
2023-05-20T04:40:14.682Z,18.17
2023-05-20T04:42:41.100Z,18.10
2023-05-20T04:45:08.769Z,19.98
2023-05-20T04:47:38.628Z,20.02
2023-05-20T04:50:13.413Z,16.58
2023-05-20T04:52:41.798Z,18.55
2023-05-20T04:55:12.681Z,18.58
2023-05-20T04:57:42.277Z,18.77
2023-05-20T05:00:10.620Z,18.00
2023-05-20T05:02:37.484Z,17.80
2023-05-20T05:05:04.204Z,18.92
2023-05-20T05:07:31.060Z,16.88
2023-05-20T05:09:57.529Z,17.85
2023-05-20T05:12:24.018Z,18.98
2023-05-20T05:14:50.944Z,18.33
2023-05-20T05:17:17.853Z,17.98
2023-05-20T05:19:44.213Z,15.98
2023-05-20T05:22:10.774Z,16.08
2023-05-20T05:24:37.206Z,20.45
2023-05-20T05:27:03.789Z,19.27
2023-05-20T05:29:30.331Z,18.80
2023-05-20T05:31:56.778Z,17.33
2023-05-20T05:34:23.211Z,18.25
2023-05-20T05:36:49.616Z,18.35
2023-05-20T05:39:16.256Z,19.23
2023-05-20T05:41:42.687Z,19.38
2023-05-20T05:44:09.179Z,19.50
2023-05-20T05:46:35.689Z,20.88
2023-05-20T05:49:02.276Z,21.45
2023-05-20T05:51:29.050Z,24.80
2023-05-20T05:53:55.458Z,22.75
2023-05-20T05:56:21.848Z,24.90
2023-05-20T05:58:48.403Z,24.10
2023-05-20T06:01:14.863Z,27.75
2023-05-20T06:03:41.351Z,23.25
2023-05-20T06:06:07.939Z,23.30
2023-05-20T06:08:34.374Z,25.50
2023-05-20T06:11:00.776Z,24.20
2023-05-20T06:13:27.146Z,21.83
2023-05-20T06:15:53.737Z,25.52
2023-05-20T06:18:20.135Z,25.67
2023-05-20T06:20:46.528Z,23.13
2023-05-20T06:23:12.973Z,20.17
2023-05-20T06:25:39.401Z,21.75
2023-05-20T06:28:05.840Z,20.83
2023-05-20T06:30:32.274Z,23.15
2023-05-20T06:32:58.723Z,23.50
2023-05-20T06:35:25.233Z,21.58
2023-05-20T06:37:51.660Z,23.42
2023-05-20T06:40:18.206Z,20.52
2023-05-20T06:42:44.668Z,21.95
2023-05-20T06:45:11.558Z,21.90
2023-05-20T06:47:38.094Z,21.65
2023-05-20T06:50:04.853Z,23.92
2023-05-20T06:52:31.229Z,20.27
2023-05-20T06:54:57.595Z,19.67
2023-05-20T06:57:23.990Z,17.40
2023-05-20T06:59:50.454Z,14.23
2023-05-20T07:02:16.903Z,12.02
2023-05-20T07:04:43.479Z,11.90
2023-05-20T07:07:09.902Z,13.07
2023-05-20T07:09:36.289Z,14.93
2023-05-20T07:12:03.560Z,11.38
2023-05-20T07:14:30.054Z,10.88
2023-05-20T07:16:56.461Z,10.43
2023-05-20T07:19:22.918Z,10.30
2023-05-20T07:21:50.030Z,10.40
2023-05-20T07:24:17.286Z,11.07
2023-05-20T07:26:43.936Z,12.23
2023-05-20T07:29:10.416Z,14.20
2023-05-20T07:31:36.895Z,12.32
2023-05-20T07:34:03.403Z,13.50
2023-05-20T07:36:30.685Z,11.60
2023-05-20T07:39:03.880Z,11.65
2023-05-20T07:43:57.895Z,11.25
2023-05-20T07:46:24.340Z,12.57
2023-05-20T07:48:50.798Z,12.05
2023-05-20T07:51:17.188Z,11.73
2023-05-20T07:53:43.613Z,13.60
2023-05-20T07:56:10.057Z,13.68
2023-05-20T07:58:36.534Z,13.63
2023-05-20T08:01:03.247Z,14.07
2023-05-20T08:03:29.825Z,12.95
2023-05-20T08:05:56.275Z,15.82
2023-05-20T08:08:22.635Z,11.45
2023-05-20T08:10:50.903Z,13.10
2023-05-20T08:13:17.349Z,12.48
2023-05-20T08:15:43.763Z,12.43
2023-05-20T08:18:10.227Z,12.45
2023-05-20T08:20:36.699Z,12.38
2023-05-20T08:23:03.184Z,12.05
2023-05-20T08:25:32.645Z,12.98
2023-05-20T08:28:03.875Z,10.70
2023-05-20T08:30:30.682Z,12.30
2023-05-20T08:32:57.244Z,10.70
2023-05-20T08:35:24.777Z,10.23
2023-05-20T08:37:53.914Z,10.70
2023-05-20T08:40:21.317Z,10.00
2023-05-20T08:42:54.347Z,11.23
2023-05-20T08:45:26.450Z,10.25
2023-05-20T08:47:53.677Z,10.25
2023-05-20T08:50:21.067Z,10.93
2023-05-20T08:52:49.128Z,10.00
2023-05-20T08:55:26.901Z,10.40
2023-05-20T08:57:55.149Z,9.85
2023-05-20T09:00:27.185Z,10.82
2023-05-20T09:02:54.725Z,11.50
2023-05-20T09:05:22.201Z,12.40
2023-05-20T09:07:49.235Z,11.57
2023-05-20T09:10:15.788Z,11.82
2023-05-20T09:12:42.263Z,11.60
2023-05-20T09:15:09.087Z,11.00
2023-05-20T09:17:37.131Z,13.20
2023-05-20T09:20:08.809Z,13.55
2023-05-20T09:22:35.565Z,10.50
2023-05-20T09:25:02.069Z,13.77
2023-05-20T09:27:28.456Z,11.45
2023-05-20T09:29:54.865Z,13.10
2023-05-20T09:32:24.238Z,12.55
2023-05-20T09:34:51.125Z,12.70
2023-05-20T09:37:22.171Z,12.20
2023-05-20T09:40:03.893Z,12.68
2023-05-20T09:42:47.866Z,12.57
2023-05-20T09:45:14.308Z,11.73
2023-05-20T09:47:41.660Z,11.52
2023-05-20T09:50:08.963Z,12.88
2023-05-20T09:52:37.295Z,11.20
2023-05-20T09:55:05.812Z,10.05
2023-05-20T09:57:36.282Z,9.50
2023-05-20T10:00:08.581Z,9.25
2023-05-20T10:02:36.039Z,9.80
2023-05-20T10:05:08.154Z,9.40
2023-05-20T10:07:42.592Z,9.80
2023-05-20T10:10:21.631Z,9.25
2023-05-20T10:13:00.060Z,9.40
2023-05-20T10:16:03.463Z,10.48
2023-05-20T10:18:50.680Z,11.00
2023-05-20T10:21:18.838Z,10.32
2023-05-20T10:23:45.961Z,12.32
2023-05-20T10:26:12.588Z,8.25
2023-05-20T10:28:41.110Z,10.75
2023-05-20T10:31:23.968Z,9.75
2023-05-20T10:33:53.262Z,11.50
2023-05-20T10:36:28.151Z,15.02
2023-05-20T10:38:59.450Z,15.93
2023-05-20T10:41:30.570Z,14.00
2023-05-20T10:44:04.646Z,13.63
2023-05-20T10:46:41.927Z,17.77
2023-05-20T10:49:25.160Z,16.60
2023-05-20T10:51:54.209Z,10.98
2023-05-20T10:54:22.151Z,12.38
2023-05-20T10:56:53.664Z,10.45
2023-05-20T10:59:21.654Z,14.20
2023-05-20T11:01:48.466Z,9.85
2023-05-20T11:04:17.238Z,11.73
2023-05-20T11:06:54.209Z,8.55
2023-05-20T11:09:20.965Z,16.50
2023-05-20T11:11:47.803Z,9.55
2023-05-20T11:14:14.986Z,15.25
2023-05-20T11:16:42.298Z,14.07
2023-05-20T11:19:09.496Z,9.20
2023-05-20T11:21:43.157Z,20.10
2023-05-20T11:24:09.635Z,13.40
2023-05-20T11:26:36.883Z,16.10
2023-05-20T11:29:03.526Z,15.15
2023-05-20T11:31:31.818Z,11.88
2023-05-20T11:34:02.297Z,17.20
2023-05-20T11:36:28.850Z,11.27
2023-05-20T11:38:58.516Z,8.48
2023-05-20T11:41:28.641Z,8.10
2023-05-20T11:43:57.152Z,10.95
2023-05-20T11:46:23.600Z,9.90
2023-05-20T11:48:56.903Z,9.82
2023-05-20T11:51:27.310Z,8.55
2023-05-20T11:53:54.244Z,13.65
2023-05-20T11:56:21.921Z,7.47
2023-05-20T11:58:48.492Z,7.93
2023-05-20T12:03:47.367Z,8.48
2023-05-20T12:06:14.059Z,12.75
2023-05-20T12:08:40.533Z,8.05
2023-05-20T12:11:07.108Z,7.80
2023-05-20T12:13:35.215Z,8.50
2023-05-20T12:16:02.321Z,9.18
2023-05-20T12:18:28.792Z,10.18
2023-05-20T12:20:55.275Z,11.98
2023-05-20T12:23:21.829Z,9.40
2023-05-20T12:25:49.825Z,8.77
2023-05-20T12:28:17.637Z,13.98
2023-05-20T12:30:44.085Z,9.07
2023-05-20T12:33:10.488Z,11.57
2023-05-20T12:35:43.733Z,10.02
2023-05-20T12:38:10.478Z,9.02
2023-05-20T12:40:42.030Z,9.07
2023-05-20T12:43:08.615Z,12.65
2023-05-20T12:45:35.120Z,9.90
2023-05-20T12:48:02.119Z,14.57
2023-05-20T12:50:28.614Z,12.68
2023-05-20T12:52:55.400Z,9.98
2023-05-20T12:55:22.130Z,13.35
2023-05-20T12:57:49.749Z,12.40
2023-05-20T13:00:16.629Z,11.43
2023-05-20T13:02:43.639Z,12.15
2023-05-20T13:05:11.226Z,13.90
2023-05-20T13:07:37.995Z,16.88
2023-05-20T13:10:05.253Z,13.15
2023-05-20T13:12:31.767Z,20.17
2023-05-20T13:14:58.213Z,9.77
2023-05-20T13:17:24.753Z,11.52
2023-05-20T13:19:51.533Z,14.88
2023-05-20T13:22:18.132Z,13.95
2023-05-20T13:24:44.559Z,11.98
2023-05-20T13:27:11.068Z,11.23
2023-05-20T13:29:37.674Z,14.90
2023-05-20T13:32:04.420Z,12.93
2023-05-20T13:34:31.606Z,9.48
2023-05-20T13:36:58.163Z,10.13
2023-05-20T13:39:24.982Z,11.32
2023-05-20T13:41:53.394Z,13.38
2023-05-20T13:44:19.826Z,12.52
2023-05-20T13:46:46.321Z,13.85
2023-05-20T13:49:12.967Z,12.70
2023-05-20T13:51:39.343Z,13.40
2023-05-20T13:54:06.546Z,15.25
2023-05-20T13:56:33.765Z,13.15
2023-05-20T13:59:00.177Z,12.88
2023-05-20T14:01:28.444Z,13.40
2023-05-20T14:03:55.015Z,12.65
2023-05-20T14:06:21.590Z,14.60
2023-05-20T14:08:47.975Z,14.88
2023-05-20T14:11:14.363Z,15.18
2023-05-20T14:13:41.356Z,15.25
2023-05-20T14:16:07.851Z,14.30
2023-05-20T14:18:34.242Z,15.05
2023-05-20T14:21:00.990Z,16.33
2023-05-20T14:23:27.400Z,12.00
2023-05-20T14:25:53.882Z,15.27
2023-05-20T14:28:20.341Z,11.48
2023-05-20T14:30:46.793Z,12.05
2023-05-20T14:33:13.259Z,15.73
2023-05-20T14:35:39.696Z,15.68
2023-05-20T14:38:06.793Z,15.93
2023-05-20T14:40:33.326Z,16.65
2023-05-20T14:43:00.086Z,11.05
2023-05-20T14:45:26.451Z,16.55
2023-05-20T14:47:52.985Z,15.23
2023-05-20T14:50:19.466Z,14.23
2023-05-20T14:52:46.168Z,15.73
2023-05-20T14:55:12.613Z,12.73
2023-05-20T14:57:39.061Z,12.32
2023-05-20T15:00:06.025Z,12.70
2023-05-20T15:02:32.650Z,18.23
2023-05-20T15:04:59.221Z,14.45
2023-05-20T15:07:26.550Z,14.57
2023-05-20T15:09:53.018Z,15.55
2023-05-20T15:12:19.434Z,14.98
2023-05-20T15:14:45.864Z,16.08
2023-05-20T15:17:12.781Z,11.48
2023-05-20T15:19:41.626Z,13.13
2023-05-20T15:22:08.417Z,16.25
2023-05-20T15:24:34.837Z,15.70
2023-05-20T15:27:01.250Z,16.17
2023-05-20T15:29:27.717Z,13.52
2023-05-20T15:31:54.117Z,14.65
2023-05-20T15:34:20.513Z,16.10
2023-05-20T15:36:46.935Z,15.52
2023-05-20T15:39:13.346Z,16.05
2023-05-20T15:41:42.140Z,14.57
2023-05-20T15:44:08.915Z,17.35
2023-05-20T15:46:35.698Z,16.15
2023-05-20T15:49:02.239Z,13.15
2023-05-20T15:51:28.770Z,14.70
2023-05-20T15:53:55.235Z,15.50
2023-05-20T15:56:22.260Z,15.85
2023-05-20T15:58:48.771Z,16.70
2023-05-20T16:01:15.384Z,18.65
2023-05-20T16:03:41.926Z,16.63
2023-05-20T16:06:10.405Z,15.88
2023-05-20T16:08:37.559Z,15.68
2023-05-20T16:11:04.705Z,17.08
2023-05-20T16:13:31.497Z,14.82
2023-05-20T16:15:58.157Z,17.08
2023-05-20T16:18:26.158Z,15.10
2023-05-20T16:20:52.598Z,13.75
2023-05-20T16:23:19.014Z,16.08
2023-05-20T16:25:45.622Z,14.80
2023-05-20T16:28:12.033Z,15.20
2023-05-20T16:30:38.499Z,14.40
2023-05-20T16:33:04.960Z,14.25
2023-05-20T16:35:31.401Z,15.55
2023-05-20T16:37:58.231Z,13.50
2023-05-20T16:40:24.687Z,11.57
2023-05-20T16:42:51.185Z,16.15
2023-05-20T16:45:17.607Z,14.65
2023-05-20T16:47:44.135Z,13.40
2023-05-20T16:50:10.671Z,14.43
2023-05-20T16:52:40.017Z,15.93
2023-05-20T16:55:08.343Z,15.05
2023-05-20T16:57:35.188Z,12.27
2023-05-20T17:00:02.268Z,13.02
2023-05-20T17:02:28.778Z,12.60
2023-05-20T17:04:55.310Z,16.25
2023-05-20T17:07:21.721Z,14.32
2023-05-20T17:09:48.145Z,15.63
2023-05-20T17:12:14.609Z,15.68
2023-05-20T17:14:40.970Z,15.80
2023-05-20T17:17:09.233Z,14.05
2023-05-20T17:19:36.198Z,14.70
2023-05-20T17:22:02.665Z,15.55
2023-05-20T17:24:29.053Z,15.00
2023-05-20T17:26:55.502Z,13.90
2023-05-20T17:29:21.956Z,15.45
2023-05-20T17:31:48.417Z,18.40
2023-05-20T17:34:14.877Z,15.18
2023-05-20T17:36:42.245Z,17.48
2023-05-20T17:39:09.657Z,15.20
2023-05-20T17:41:36.127Z,16.63
2023-05-20T17:44:02.476Z,13.55
2023-05-20T17:46:28.987Z,15.95
2023-05-20T17:48:56.764Z,15.88
2023-05-20T17:51:23.311Z,11.07
2023-05-20T17:53:49.807Z,11.60
2023-05-20T17:56:16.520Z,11.15
2023-05-20T17:58:44.992Z,10.05
2023-05-20T18:01:11.456Z,11.40
2023-05-20T18:03:39.701Z,12.07
2023-05-20T18:06:06.527Z,15.93
2023-05-20T18:08:33.776Z,13.60
2023-05-20T18:11:00.228Z,10.02
2023-05-20T18:13:26.650Z,13.60
2023-05-20T18:15:53.143Z,11.18
2023-05-20T18:18:19.676Z,11.23
2023-05-20T18:20:46.094Z,10.02
2023-05-20T18:23:12.525Z,9.60
2023-05-20T18:25:41.103Z,10.25
2023-05-20T18:28:09.675Z,12.18
2023-05-20T18:30:36.595Z,12.63
2023-05-20T18:33:03.390Z,9.40
2023-05-20T18:35:29.792Z,13.98
2023-05-20T18:37:56.352Z,16.20
2023-05-20T18:40:22.807Z,11.15
2023-05-20T18:42:49.255Z,16.10
2023-05-20T18:45:16.075Z,14.73
2023-05-20T18:47:43.616Z,17.73
2023-05-20T18:50:10.765Z,16.33
2023-05-20T18:52:37.248Z,19.40
2023-05-20T18:55:04.020Z,23.38
2023-05-20T18:57:33.217Z,22.88
2023-05-20T18:59:59.688Z,20.85
2023-05-20T19:02:26.094Z,20.08
2023-05-20T19:04:52.571Z,19.77
2023-05-20T19:07:19.019Z,17.67
2023-05-20T19:09:45.525Z,20.80
2023-05-20T19:12:11.960Z,22.33
2023-05-20T19:14:38.368Z,20.02
2023-05-20T19:17:05.475Z,22.52
2023-05-20T19:19:32.028Z,27.00
2023-05-20T19:21:58.681Z,21.88
2023-05-20T19:24:25.596Z,21.42
2023-05-20T19:26:52.044Z,23.90
2023-05-20T19:29:18.538Z,19.10
2023-05-20T19:31:45.823Z,18.05
2023-05-20T19:34:12.214Z,19.55
2023-05-20T19:36:40.232Z,18.70
2023-05-20T19:39:07.673Z,17.60
2023-05-20T19:41:34.292Z,16.27
2023-05-20T19:44:01.686Z,19.08
2023-05-20T19:46:28.313Z,17.00
2023-05-20T19:48:54.791Z,17.42
2023-05-20T19:51:21.577Z,15.43
2023-05-20T19:53:47.927Z,20.70
2023-05-20T19:56:19.174Z,16.77
2023-05-20T19:58:46.320Z,16.35
2023-05-20T20:01:16.956Z,16.45
2023-05-20T20:03:44.147Z,17.10
2023-05-20T20:06:10.862Z,17.20
2023-05-20T20:08:41.608Z,16.90
2023-05-20T20:11:08.996Z,20.08
2023-05-20T20:13:35.516Z,20.60
2023-05-20T20:16:01.971Z,21.83
2023-05-20T20:18:28.398Z,16.27
2023-05-20T20:20:54.772Z,25.15
2023-05-20T20:23:21.374Z,17.90
2023-05-20T20:25:48.250Z,23.88
2023-05-20T20:28:14.754Z,15.60
2023-05-20T20:30:41.112Z,22.60
2023-05-20T20:33:09.478Z,26.20
2023-05-20T20:35:37.039Z,27.55
2023-05-20T20:38:08.765Z,25.30
2023-05-20T20:40:41.836Z,17.23
2023-05-20T20:43:10.790Z,31.05
2023-05-20T20:45:37.392Z,32.33
2023-05-20T20:48:08.139Z,25.13
2023-05-20T20:50:35.703Z,28.08
2023-05-20T20:53:02.350Z,34.67
2023-05-20T20:55:31.620Z,31.52
2023-05-20T20:58:02.352Z,31.92
2023-05-20T21:00:28.752Z,24.73
2023-05-20T21:02:55.283Z,26.75
2023-05-20T21:05:26.277Z,37.67
2023-05-20T21:07:58.222Z,20.05
2023-05-20T21:10:29.584Z,18.23
2023-05-20T21:12:57.460Z,20.48
2023-05-20T21:15:24.883Z,28.30
2023-05-20T21:17:51.522Z,31.55
2023-05-20T21:20:21.353Z,31.77
2023-05-20T21:22:48.270Z,23.92
2023-05-20T21:25:14.922Z,32.20
2023-05-20T21:27:41.484Z,30.08
2023-05-20T21:30:10.111Z,21.95
2023-05-20T21:32:37.040Z,27.13
2023-05-20T21:35:03.903Z,35.60
2023-05-20T21:37:30.757Z,26.77
2023-05-20T21:39:57.122Z,29.55
2023-05-20T21:42:23.546Z,42.15
2023-05-20T21:44:49.958Z,27.48
2023-05-20T21:47:16.350Z,26.65
2023-05-20T21:49:42.931Z,76.22
2023-05-20T21:52:09.673Z,29.77
2023-05-20T21:54:36.189Z,30.40
2023-05-20T21:57:02.696Z,48.05
2023-05-20T21:59:29.065Z,27.90
2023-05-20T22:01:56.261Z,33.00
2023-05-20T22:04:23.099Z,31.80
2023-05-20T22:06:50.986Z,63.13
2023-05-20T22:09:17.490Z,54.97
2023-05-20T22:11:45.038Z,60.92
2023-05-20T22:14:16.210Z,43.72
2023-05-20T22:16:46.688Z,49.42
2023-05-20T22:19:15.139Z,65.57
2023-05-20T22:21:50.406Z,55.20
2023-05-20T22:24:18.035Z,47.92
2023-05-20T22:26:44.681Z,70.28
2023-05-20T22:29:11.132Z,101.18
2023-05-20T22:31:38.116Z,93.93
2023-05-20T22:34:05.385Z,63.63
2023-05-20T22:36:36.044Z,64.53
2023-05-20T22:39:04.093Z,55.78
2023-05-20T22:41:30.889Z,99.30
2023-05-20T22:43:57.461Z,83.60
2023-05-20T22:46:24.549Z,115.88
2023-05-20T22:48:55.300Z,215.02
2023-05-20T22:51:22.618Z,317.92
2023-05-20T22:53:49.302Z,104.70
2023-05-20T22:56:16.015Z,89.22
2023-05-20T22:58:42.541Z,74.65
2023-05-20T23:01:09.500Z,228.73
2023-05-20T23:03:36.404Z,127.85
2023-05-20T23:06:02.887Z,136.60
2023-05-20T23:08:29.447Z,178.40
2023-05-20T23:10:55.985Z,88.05
2023-05-20T23:13:22.447Z,115.28
2023-05-20T23:15:49.131Z,133.93
2023-05-20T23:18:16.103Z,78.00
2023-05-20T23:20:42.637Z,98.75
2023-05-20T23:23:11.467Z,109.68
2023-05-20T23:25:38.546Z,94.50
2023-05-20T23:28:05.771Z,311.48
2023-05-20T23:30:32.167Z,115.72
2023-05-20T23:32:58.648Z,222.07
2023-05-20T23:35:25.642Z,138.13
2023-05-20T23:37:52.360Z,156.32
2023-05-20T23:40:19.033Z,276.88
2023-05-20T23:42:45.451Z,193.38
2023-05-20T23:45:12.083Z,192.48
2023-05-20T23:47:38.494Z,145.82
2023-05-20T23:50:05.244Z,234.18
2023-05-20T23:52:31.658Z,76.40
2023-05-20T23:54:58.541Z,257.85
2023-05-20T23:57:24.924Z,141.40
2023-05-20T23:59:51.495Z,200.63
